createdAt,value
2018-08-11T00:00:16.631Z,45.10
2018-08-11T00:02:45.359Z,45.00
2018-08-11T00:05:13.934Z,45.10
2018-08-11T00:07:42.793Z,45.10
2018-08-11T00:10:11.761Z,45.30
2018-08-11T00:12:41.848Z,46.00
2018-08-11T00:15:12.403Z,45.90
2018-08-11T00:17:40.901Z,45.10
2018-08-11T00:20:12.097Z,45.50
2018-08-11T00:22:41.291Z,45.60
2018-08-11T00:25:11.153Z,45.60
2018-08-11T00:27:39.366Z,45.70
2018-08-11T00:30:14.554Z,45.90
2018-08-11T00:32:42.874Z,45.90
2018-08-11T00:35:13.928Z,46.10
2018-08-11T00:37:42.715Z,46.20
2018-08-11T00:40:13.398Z,46.10
2018-08-11T00:42:43.305Z,46.30
2018-08-11T00:45:12.690Z,46.50
2018-08-11T00:47:40.948Z,46.80
2018-08-11T00:50:13.921Z,46.60
2018-08-11T00:52:42.224Z,46.60
2018-08-11T00:55:12.498Z,46.80
2018-08-11T00:57:40.766Z,46.80
2018-08-11T01:00:15.241Z,46.90
2018-08-11T01:02:43.605Z,47.20
2018-08-11T01:05:14.489Z,47.10
2018-08-11T01:07:43.426Z,47.20
2018-08-11T01:10:12.453Z,47.30
2018-08-11T01:12:42.359Z,47.20
2018-08-11T01:15:13.699Z,47.40
2018-08-11T01:17:41.883Z,47.70
2018-08-11T01:20:11.397Z,47.70
2018-08-11T01:22:40.652Z,47.60
2018-08-11T01:25:09.822Z,48.00
2018-08-11T01:27:38.270Z,47.70
2018-08-11T01:30:15.892Z,47.90
2018-08-11T01:32:44.044Z,48.10
2018-08-11T01:35:12.793Z,48.10
2018-08-11T01:37:42.128Z,48.00
2018-08-11T01:40:11.834Z,48.10
2018-08-11T01:42:41.031Z,48.10
2018-08-11T01:45:10.340Z,48.20
2018-08-11T01:47:39.040Z,48.30
2018-08-11T01:50:08.632Z,48.50
2018-08-11T01:52:36.996Z,48.40
2018-08-11T01:55:05.420Z,48.30
2018-08-11T01:57:33.706Z,48.40
2018-08-11T02:00:02.206Z,48.60
2018-08-11T02:02:30.496Z,48.50
2018-08-11T02:04:58.701Z,48.60
2018-08-11T02:07:26.848Z,48.50
2018-08-11T02:09:55.102Z,48.30
2018-08-11T02:12:23.261Z,48.40
2018-08-11T02:14:51.754Z,48.30
2018-08-11T02:17:20.327Z,48.20
2018-08-11T02:19:48.652Z,48.50
2018-08-11T02:22:17.145Z,48.30
2018-08-11T02:24:45.522Z,48.30
2018-08-11T02:27:13.644Z,48.50
2018-08-11T02:29:41.789Z,48.40
2018-08-11T02:32:10.413Z,48.60
2018-08-11T02:34:38.625Z,48.60
2018-08-11T02:37:07.386Z,48.30
2018-08-11T02:39:35.945Z,48.30
2018-08-11T02:42:04.157Z,48.80
2018-08-11T02:44:32.374Z,48.30
2018-08-11T02:47:00.581Z,48.30
2018-08-11T02:49:28.735Z,48.40
2018-08-11T02:51:57.249Z,48.30
2018-08-11T02:54:25.416Z,48.10
2018-08-11T02:56:53.632Z,48.20
2018-08-11T02:59:24.583Z,48.30
2018-08-11T03:01:54.145Z,48.40
2018-08-11T03:04:23.260Z,48.60
2018-08-11T03:06:52.116Z,48.30
2018-08-11T03:09:20.453Z,48.20
2018-08-11T03:11:49.120Z,47.90
2018-08-11T03:14:17.576Z,48.10
2018-08-11T03:16:47.081Z,47.70
2018-08-11T03:19:15.454Z,47.80
2018-08-11T03:21:44.058Z,47.50
2018-08-11T03:24:12.332Z,47.50
2018-08-11T03:26:40.596Z,47.60
2018-08-11T03:29:09.056Z,47.70
2018-08-11T03:31:37.314Z,47.60
2018-08-11T03:34:05.561Z,47.40
2018-08-11T03:36:33.947Z,47.60
2018-08-11T03:39:02.165Z,47.10
2018-08-11T03:41:30.369Z,47.00
2018-08-11T03:43:58.632Z,47.10
2018-08-11T03:46:26.959Z,47.00
2018-08-11T03:48:55.614Z,47.50
2018-08-11T03:51:23.823Z,47.10
2018-08-11T03:53:52.129Z,47.10
2018-08-11T03:56:20.474Z,47.20
2018-08-11T03:58:49.190Z,46.90
2018-08-11T04:01:17.642Z,46.90
2018-08-11T04:03:46.227Z,47.00
2018-08-11T04:06:14.470Z,47.40
2018-08-11T04:08:42.867Z,47.30
2018-08-11T04:11:11.395Z,47.30
2018-08-11T04:13:39.873Z,47.20
2018-08-11T04:16:08.424Z,46.60
2018-08-11T04:18:37.041Z,46.60
2018-08-11T04:21:05.536Z,46.60
2018-08-11T04:23:33.895Z,46.40
2018-08-11T04:26:02.139Z,47.00
2018-08-11T04:28:30.462Z,46.60
2018-08-11T04:30:58.775Z,46.50
2018-08-11T04:33:26.972Z,46.40
2018-08-11T04:35:55.198Z,46.50
2018-08-11T04:38:24.349Z,46.20
2018-08-11T04:40:52.830Z,46.20
2018-08-11T04:43:21.285Z,46.20
2018-08-11T04:45:49.591Z,46.10
2018-08-11T04:48:17.905Z,46.30
2018-08-11T04:50:49.129Z,46.40
2018-08-11T04:53:17.344Z,46.50
2018-08-11T04:55:45.570Z,46.40
2018-08-11T04:58:13.837Z,46.40
2018-08-11T05:00:42.131Z,46.40
2018-08-11T05:03:10.378Z,46.00
2018-08-11T05:05:38.701Z,45.90
2018-08-11T05:08:07.469Z,46.10
2018-08-11T05:10:36.035Z,46.20
2018-08-11T05:13:05.174Z,46.30
2018-08-11T05:15:33.381Z,46.10
2018-08-11T05:18:01.669Z,46.20
2018-08-11T05:20:30.552Z,46.20
2018-08-11T05:22:59.678Z,46.20
2018-08-11T05:25:29.064Z,46.30
2018-08-11T05:27:57.391Z,46.20
2018-08-11T05:30:25.893Z,46.20
2018-08-11T05:32:54.092Z,46.30
2018-08-11T05:35:22.673Z,46.50
2018-08-11T05:37:50.917Z,46.20
2018-08-11T05:40:19.284Z,46.20
2018-08-11T05:42:47.473Z,46.40
2018-08-11T05:45:15.724Z,46.60
2018-08-11T05:47:44.022Z,46.30
2018-08-11T05:50:12.276Z,46.40
2018-08-11T05:52:41.289Z,46.40
2018-08-11T05:55:09.776Z,46.40
2018-08-11T05:57:38.192Z,46.40
2018-08-11T06:00:08.855Z,46.60
2018-08-11T06:02:37.087Z,46.60
2018-08-11T06:05:05.271Z,46.50
2018-08-11T06:07:33.729Z,46.60
2018-08-11T06:10:02.229Z,46.90
2018-08-11T06:12:30.812Z,46.80
2018-08-11T06:14:59.574Z,46.70
2018-08-11T06:17:27.914Z,46.90
2018-08-11T06:19:56.385Z,46.90
2018-08-11T06:22:24.664Z,47.00
2018-08-11T06:24:53.387Z,47.10
2018-08-11T06:27:21.878Z,46.70
2018-08-11T06:29:50.382Z,46.70
2018-08-11T06:32:18.760Z,46.80
2018-08-11T06:34:47.875Z,46.50
2018-08-11T06:37:17.164Z,46.40
2018-08-11T06:39:51.066Z,46.30
2018-08-11T06:42:19.332Z,46.20
2018-08-11T06:44:47.742Z,46.40
2018-08-11T06:47:16.532Z,46.40
2018-08-11T06:49:45.455Z,46.40
2018-08-11T06:52:15.999Z,46.30
2018-08-11T06:54:46.464Z,45.90
2018-08-11T06:57:14.766Z,46.50
2018-08-11T06:59:43.305Z,46.60
2018-08-11T07:02:14.365Z,46.80
2018-08-11T07:04:42.625Z,46.80
2018-08-11T07:07:10.962Z,46.80
2018-08-11T07:09:39.676Z,46.90
2018-08-11T07:12:08.880Z,47.30
2018-08-11T07:14:41.340Z,46.90
2018-08-11T07:17:09.648Z,47.00
2018-08-11T07:19:38.348Z,46.90
2018-08-11T07:22:07.042Z,47.30
2018-08-11T07:24:35.284Z,47.20
2018-08-11T07:27:03.692Z,47.10
2018-08-11T07:29:32.117Z,47.30
2018-08-11T07:32:00.622Z,46.90
2018-08-11T07:34:29.350Z,47.20
2018-08-11T07:36:58.070Z,47.00
2018-08-11T07:39:28.667Z,46.70
2018-08-11T07:41:56.986Z,47.00
2018-08-11T07:44:25.344Z,47.30
2018-08-11T07:46:53.635Z,45.90
2018-08-11T07:49:22.007Z,45.80
2018-08-11T07:51:50.464Z,44.60
2018-08-11T07:54:19.037Z,44.50
2018-08-11T07:56:47.401Z,44.40
2018-08-11T07:59:15.692Z,43.80
2018-08-11T08:01:44.123Z,43.70
2018-08-11T08:04:12.616Z,44.30
2018-08-11T08:06:41.528Z,43.90
2018-08-11T08:09:12.893Z,44.80
2018-08-11T08:11:41.659Z,44.40
2018-08-11T08:14:10.453Z,44.00
2018-08-11T08:16:38.901Z,44.00
2018-08-11T08:19:07.299Z,44.00
2018-08-11T08:21:35.579Z,44.10
2018-08-11T08:24:04.066Z,44.00
2018-08-11T08:26:32.475Z,44.30
2018-08-11T08:29:02.394Z,44.50
2018-08-11T08:31:30.628Z,44.50
2018-08-11T08:33:59.014Z,44.40
2018-08-11T08:36:27.282Z,44.40
2018-08-11T08:38:55.903Z,44.40
2018-08-11T08:41:24.486Z,44.30
2018-08-11T08:43:53.002Z,44.00
2018-08-11T08:46:21.455Z,43.90
2018-08-11T08:48:50.069Z,44.00
2018-08-11T08:51:18.582Z,44.10
2018-08-11T08:53:48.169Z,44.10
2018-08-11T08:56:16.614Z,44.10
2018-08-11T08:58:45.091Z,44.30
2018-08-11T09:01:13.597Z,45.00
2018-08-11T09:03:41.987Z,45.70
2018-08-11T09:06:10.636Z,45.80
2018-08-11T09:08:39.094Z,45.70
2018-08-11T09:11:08.088Z,45.30
2018-08-11T09:13:37.492Z,45.20
2018-08-11T09:16:06.001Z,45.50
2018-08-11T09:18:34.319Z,45.40
2018-08-11T09:21:02.778Z,45.50
2018-08-11T09:23:31.662Z,45.50
2018-08-11T09:26:00.353Z,45.30
2018-08-11T09:28:29.028Z,45.40
2018-08-11T09:30:58.200Z,45.60
2018-08-11T09:33:26.578Z,45.80
2018-08-11T09:35:54.854Z,45.80
2018-08-11T09:38:23.209Z,45.90
2018-08-11T09:40:51.550Z,45.70
2018-08-11T09:43:20.076Z,45.50
2018-08-11T09:45:49.169Z,45.90
2018-08-11T09:48:17.614Z,46.10
2018-08-11T09:50:46.144Z,46.30
2018-08-11T09:53:15.233Z,46.40
2018-08-11T09:55:43.656Z,46.20
2018-08-11T09:58:11.891Z,46.20
2018-08-11T10:00:45.747Z,46.20
2018-08-11T10:03:14.471Z,46.40
2018-08-11T10:05:43.088Z,46.70
2018-08-11T10:08:11.659Z,47.10
2018-08-11T10:10:40.896Z,47.00
2018-08-11T10:13:09.206Z,47.10
2018-08-11T10:15:39.044Z,46.60
2018-08-11T10:18:07.430Z,46.50
2018-08-11T10:20:36.476Z,46.10
2018-08-11T10:23:04.831Z,45.60
2018-08-11T10:25:33.111Z,45.10
2018-08-11T10:28:01.507Z,45.40
2018-08-11T10:30:31.128Z,45.20
2018-08-11T10:32:59.810Z,45.00
2018-08-11T10:35:29.000Z,44.90
2018-08-11T10:37:57.279Z,45.00
2018-08-11T10:40:27.806Z,45.20
2018-08-11T10:42:56.293Z,45.00
2018-08-11T10:45:25.497Z,45.10
2018-08-11T10:47:54.012Z,45.20
2018-08-11T10:50:22.329Z,45.80
2018-08-11T10:52:50.778Z,46.50
2018-08-11T10:55:19.108Z,46.90
2018-08-11T10:57:47.527Z,47.80
2018-08-11T11:00:16.179Z,48.30
2018-08-11T11:02:44.854Z,48.80
2018-08-11T11:05:13.429Z,46.90
2018-08-11T11:07:42.121Z,46.90
2018-08-11T11:10:10.507Z,46.80
2018-08-11T11:12:38.998Z,46.60
2018-08-11T11:15:07.920Z,45.40
2018-08-11T11:17:36.315Z,44.80
2018-08-11T11:20:06.598Z,44.50
2018-08-11T11:22:35.289Z,42.90
2018-08-11T11:25:03.686Z,43.30
2018-08-11T11:27:32.002Z,42.20
2018-08-11T11:30:00.392Z,41.40
2018-08-11T11:32:29.106Z,41.50
2018-08-11T11:34:57.788Z,41.50
2018-08-11T11:37:26.119Z,41.90
2018-08-11T11:39:54.591Z,41.60
2018-08-11T11:42:23.000Z,41.50
2018-08-11T11:44:51.415Z,42.20
2018-08-11T11:47:20.279Z,42.20
2018-08-11T11:49:48.892Z,42.30
2018-08-11T11:52:17.438Z,42.60
2018-08-11T11:54:45.786Z,42.70
2018-08-11T11:57:14.252Z,42.80
2018-08-11T11:59:42.538Z,42.80
2018-08-11T12:02:10.964Z,42.80
2018-08-11T12:04:39.185Z,42.80
2018-08-11T12:07:07.868Z,42.50
2018-08-11T12:09:36.174Z,43.40
2018-08-11T12:12:04.656Z,43.70
2018-08-11T12:14:33.183Z,43.60
2018-08-11T12:17:01.492Z,42.80
2018-08-11T12:19:29.858Z,42.90
2018-08-11T12:21:58.653Z,43.60
2018-08-11T12:24:26.871Z,43.40
2018-08-11T12:26:55.173Z,43.20
2018-08-11T12:29:23.459Z,43.70
2018-08-11T12:31:51.822Z,43.60
2018-08-11T12:34:20.061Z,43.10
2018-08-11T12:36:48.584Z,41.40
2018-08-11T12:39:17.100Z,41.30
2018-08-11T12:41:45.387Z,40.40
2018-08-11T12:44:13.582Z,39.60
2018-08-11T12:46:41.849Z,39.50
2018-08-11T12:49:10.182Z,38.70
2018-08-11T12:51:39.030Z,38.10
2018-08-11T12:54:07.452Z,37.50
2018-08-11T12:56:35.911Z,37.60
2018-08-11T12:59:04.651Z,37.30
2018-08-11T13:01:33.485Z,37.40
2018-08-11T13:04:01.777Z,37.50
2018-08-11T13:06:30.256Z,37.90
2018-08-11T13:08:58.648Z,38.90
2018-08-11T13:11:26.983Z,38.80
2018-08-11T13:13:55.352Z,39.00
2018-08-11T13:16:23.637Z,38.80
2018-08-11T13:18:52.282Z,39.20
2018-08-11T13:21:20.726Z,38.50
2018-08-11T13:23:49.035Z,37.80
2018-08-11T13:26:17.553Z,37.60
2018-08-11T13:28:46.609Z,37.30
2018-08-11T13:31:15.035Z,37.30
2018-08-11T13:33:43.518Z,37.20
2018-08-11T13:36:11.848Z,37.60
2018-08-11T13:38:40.406Z,37.60
2018-08-11T13:41:09.186Z,37.70
2018-08-11T13:43:37.502Z,37.80
2018-08-11T13:46:06.190Z,37.90
2018-08-11T13:48:34.803Z,37.80
2018-08-11T13:51:03.915Z,37.30
2018-08-11T13:53:32.838Z,37.50
2018-08-11T13:56:01.082Z,37.70
2018-08-11T13:58:29.817Z,37.50
2018-08-11T14:00:58.265Z,37.50
2018-08-11T14:03:26.485Z,37.20
2018-08-11T14:05:55.937Z,37.20
2018-08-11T14:08:24.195Z,37.40
2018-08-11T14:10:52.442Z,37.00
2018-08-11T14:13:20.952Z,36.80
2018-08-11T14:15:49.367Z,37.30
2018-08-11T14:18:18.145Z,37.40
2018-08-11T14:20:46.434Z,37.90
2018-08-11T14:23:14.903Z,37.60
2018-08-11T14:25:43.464Z,37.70
2018-08-11T14:28:11.630Z,37.60
2018-08-11T14:30:40.124Z,37.30
2018-08-11T14:33:08.296Z,37.20
2018-08-11T14:35:36.639Z,36.80
2018-08-11T14:38:04.886Z,36.20
2018-08-11T14:40:33.278Z,36.10
2018-08-11T14:43:01.622Z,36.10
2018-08-11T14:45:30.208Z,36.20
2018-08-11T14:47:58.436Z,35.40
2018-08-11T14:50:27.060Z,35.30
2018-08-11T14:52:55.323Z,34.80
2018-08-11T14:55:23.847Z,34.20
2018-08-11T14:57:52.207Z,34.30
2018-08-11T15:00:20.508Z,34.30
2018-08-11T15:02:48.783Z,34.80
2018-08-11T15:05:17.616Z,35.00
2018-08-11T15:07:45.947Z,35.00
2018-08-11T15:10:14.333Z,35.20
2018-08-11T15:12:43.398Z,35.40
2018-08-11T15:15:11.820Z,35.70
2018-08-11T15:17:41.812Z,35.20
2018-08-11T15:20:10.477Z,35.00
2018-08-11T15:22:39.548Z,34.90
2018-08-11T15:25:08.681Z,34.70
2018-08-11T15:27:36.982Z,34.60
2018-08-11T15:30:07.494Z,34.50
2018-08-11T15:32:37.729Z,34.80
2018-08-11T15:35:06.668Z,34.70
2018-08-11T15:37:36.456Z,34.70
2018-08-11T15:40:05.562Z,34.90
2018-08-11T15:42:35.973Z,35.10
2018-08-11T15:45:06.939Z,35.30
2018-08-11T15:47:35.235Z,35.70
2018-08-11T15:50:04.803Z,35.80
2018-08-11T15:52:33.060Z,35.90
2018-08-11T15:55:01.734Z,36.20
2018-08-11T15:57:30.384Z,36.30
2018-08-11T15:59:58.679Z,36.40
2018-08-11T16:02:26.959Z,36.30
2018-08-11T16:04:55.351Z,36.30
2018-08-11T16:07:23.826Z,36.40
2018-08-11T16:09:52.418Z,36.50
2018-08-11T16:12:21.265Z,36.40
2018-08-11T16:14:49.666Z,36.50
2018-08-11T16:17:18.078Z,36.40
2018-08-11T16:19:46.840Z,36.70
2018-08-11T16:22:15.106Z,36.50
2018-08-11T16:24:43.714Z,36.60
2018-08-11T16:27:12.050Z,36.50
2018-08-11T16:29:40.630Z,36.70
2018-08-11T16:32:09.269Z,36.80
2018-08-11T16:34:37.611Z,37.00
2018-08-11T16:37:06.125Z,37.20
2018-08-11T16:39:34.471Z,37.10
2018-08-11T16:42:02.745Z,37.20
2018-08-11T16:44:31.893Z,37.30
2018-08-11T16:47:01.012Z,37.50
2018-08-11T16:49:29.525Z,37.50
2018-08-11T16:51:58.000Z,37.60
2018-08-11T16:54:26.491Z,37.60
2018-08-11T16:56:54.828Z,37.80
2018-08-11T16:59:23.506Z,37.80
2018-08-11T17:01:52.159Z,37.90
2018-08-11T17:04:20.793Z,37.90
2018-08-11T17:06:49.071Z,38.20
2018-08-11T17:09:17.664Z,39.00
2018-08-11T17:11:46.298Z,39.60
2018-08-11T17:14:16.225Z,40.10
2018-08-11T17:16:44.604Z,40.90
2018-08-11T17:19:12.923Z,41.30
2018-08-11T17:21:41.216Z,41.90
2018-08-11T17:24:09.477Z,42.20
2018-08-11T17:26:38.103Z,42.40
2018-08-11T17:29:07.549Z,42.50
2018-08-11T17:31:35.778Z,42.80
2018-08-11T17:34:04.389Z,43.00
2018-08-11T17:36:32.730Z,43.20
2018-08-11T17:39:01.162Z,43.20
2018-08-11T17:41:30.160Z,43.30
2018-08-11T17:43:58.425Z,43.40
2018-08-11T17:46:27.629Z,43.40
2018-08-11T17:48:56.287Z,43.50
2018-08-11T17:51:25.158Z,43.40
2018-08-11T17:53:53.859Z,43.40
2018-08-11T17:56:22.214Z,43.50
2018-08-11T17:58:50.909Z,44.00
2018-08-11T18:01:19.695Z,44.10
2018-08-11T18:03:48.001Z,44.30
2018-08-11T18:06:16.542Z,44.50
2018-08-11T18:08:45.535Z,44.60
2018-08-11T18:14:06.674Z,46.10
2018-08-11T18:16:37.609Z,46.40
2018-08-11T18:19:08.586Z,46.80
2018-08-11T18:21:37.104Z,47.10
2018-08-11T18:24:12.602Z,47.60
2018-08-11T18:26:41.949Z,47.70
2018-08-11T18:29:10.262Z,47.60
2018-08-11T18:31:38.520Z,47.60
2018-08-11T18:34:06.951Z,47.50
2018-08-11T18:36:35.511Z,47.70
2018-08-11T18:39:05.984Z,47.70
2018-08-11T18:41:34.592Z,47.80
2018-08-11T18:44:03.367Z,47.80
2018-08-11T18:46:31.781Z,47.50
2018-08-11T18:49:00.334Z,47.50
2018-08-11T18:51:28.537Z,47.60
2018-08-11T18:53:56.884Z,47.40
2018-08-11T18:56:25.555Z,47.40
2018-08-11T18:58:53.891Z,47.40
2018-08-11T19:01:22.757Z,47.30
2018-08-11T19:03:51.071Z,47.30
2018-08-11T19:06:19.384Z,47.20
2018-08-11T19:08:47.760Z,47.40
2018-08-11T19:11:16.387Z,47.30
2018-08-11T19:13:44.869Z,47.50
2018-08-11T19:16:20.039Z,47.30
2018-08-11T19:18:48.436Z,47.20
2018-08-11T19:21:16.796Z,47.10
2018-08-11T19:23:45.145Z,47.10
2018-08-11T19:26:13.526Z,47.10
2018-08-11T19:28:42.308Z,47.10
2018-08-11T19:31:10.687Z,47.20
2018-08-11T19:33:39.041Z,47.20
2018-08-11T19:36:07.360Z,47.10
2018-08-11T19:38:35.958Z,47.10
2018-08-11T19:41:04.333Z,47.40
2018-08-11T19:43:33.596Z,47.40
2018-08-11T19:46:02.766Z,47.50
2018-08-11T19:48:31.333Z,47.40
2018-08-11T19:51:00.226Z,47.80
2018-08-11T19:53:28.709Z,47.30
2018-08-11T19:55:57.328Z,47.30
2018-08-11T19:58:25.619Z,47.30
2018-08-11T20:00:54.123Z,47.30
2018-08-11T20:03:23.518Z,47.30
2018-08-11T20:05:52.602Z,47.50
2018-08-11T20:08:21.011Z,47.70
2018-08-11T20:10:49.420Z,47.80
2018-08-11T20:13:18.001Z,47.80
2018-08-11T20:15:47.823Z,47.80
2018-08-11T20:18:17.060Z,47.80
2018-08-11T20:20:46.154Z,48.00
2018-08-11T20:23:14.421Z,48.00
2018-08-11T20:25:45.444Z,48.20
2018-08-11T20:28:14.671Z,48.20
2018-08-11T20:30:43.315Z,48.40
2018-08-11T20:33:12.144Z,48.40
2018-08-11T20:35:40.727Z,48.50
2018-08-11T20:38:09.515Z,48.50
2018-08-11T20:40:37.993Z,48.30
2018-08-11T20:43:06.986Z,48.40
2018-08-11T20:45:35.493Z,48.40
2018-08-11T20:48:03.909Z,48.40
2018-08-11T20:50:32.300Z,48.60
2018-08-11T20:53:00.968Z,48.80
2018-08-11T20:55:29.531Z,48.80
2018-08-11T20:57:58.492Z,48.90
2018-08-11T21:00:27.189Z,48.60
2018-08-11T21:02:56.293Z,48.90
2018-08-11T21:05:25.237Z,48.90
2018-08-11T21:07:54.266Z,48.90
2018-08-11T21:10:22.820Z,49.00
2018-08-11T21:12:51.427Z,49.00
2018-08-11T21:15:20.388Z,49.10
2018-08-11T21:17:48.642Z,49.10
2018-08-11T21:20:17.147Z,49.10
2018-08-11T21:22:45.764Z,49.20
2018-08-11T21:25:14.268Z,49.40
2018-08-11T21:27:42.734Z,49.30
2018-08-11T21:30:13.766Z,49.50
2018-08-11T21:32:42.311Z,49.60
2018-08-11T21:35:11.305Z,49.80
2018-08-11T21:37:39.595Z,49.90
2018-08-11T21:40:12.761Z,50.30
2018-08-11T21:42:42.132Z,50.30
2018-08-11T21:45:10.835Z,50.30
2018-08-11T21:47:40.036Z,50.30
2018-08-11T21:50:09.095Z,50.30
2018-08-11T21:52:38.619Z,50.20
2018-08-11T21:55:07.941Z,50.30
2018-08-11T21:57:37.043Z,50.50
2018-08-11T22:00:22.629Z,50.40
2018-08-11T22:02:51.611Z,50.30
2018-08-11T22:05:20.343Z,50.30
2018-08-11T22:07:48.649Z,50.30
2018-08-11T22:10:16.975Z,50.40
2018-08-11T22:12:46.013Z,50.60
2018-08-11T22:15:16.131Z,50.90
2018-08-11T22:17:44.517Z,50.60
2018-08-11T22:20:12.865Z,50.40
2018-08-11T22:22:41.305Z,50.70
2018-08-11T22:25:11.045Z,50.60
2018-08-11T22:27:39.796Z,50.60
2018-08-11T22:30:08.850Z,50.60
2018-08-11T22:32:37.821Z,50.70
2018-08-11T22:35:08.014Z,50.80
2018-08-11T22:37:36.525Z,50.80
2018-08-11T22:40:06.220Z,51.10
2018-08-11T22:42:35.820Z,51.40
2018-08-11T22:45:06.595Z,51.90
2018-08-11T22:47:35.018Z,52.20
2018-08-11T22:50:03.346Z,52.80
2018-08-11T22:52:31.923Z,53.00
2018-08-11T22:55:00.352Z,53.30
2018-08-11T22:57:28.681Z,53.20
2018-08-11T22:59:56.920Z,53.40
2018-08-11T23:02:25.187Z,53.40
2018-08-11T23:04:53.547Z,53.60
2018-08-11T23:07:22.158Z,53.50
2018-08-11T23:09:50.475Z,53.90
2018-08-11T23:12:18.715Z,53.90
2018-08-11T23:14:47.029Z,54.20
2018-08-11T23:17:15.290Z,54.50
2018-08-11T23:19:43.721Z,54.40
2018-08-11T23:22:12.316Z,54.60
2018-08-11T23:24:40.557Z,54.70
2018-08-11T23:27:08.891Z,54.70
2018-08-11T23:29:37.305Z,54.60
2018-08-11T23:32:05.607Z,54.70
2018-08-11T23:34:33.795Z,54.70
2018-08-11T23:37:02.062Z,54.60
2018-08-11T23:39:30.313Z,54.80
2018-08-11T23:41:58.593Z,54.90
2018-08-11T23:44:26.803Z,55.20
2018-08-11T23:46:55.050Z,55.10
2018-08-11T23:49:23.458Z,55.20
2018-08-11T23:51:51.675Z,55.20
2018-08-11T23:54:19.912Z,55.30
2018-08-11T23:56:48.134Z,55.50
2018-08-11T23:59:16.477Z,55.50
